Aérodrome :
LOGIN :

S'inscrire | Disclaimer

   EN    FR    IT 

 










Légende :    VFR   VFR Marginal   IFR   IFR Intensif   IFR Très Intensif
Visi : 
Plafond : 
>= 8 km
>= 3000ft
5 à 8 km
1000 à 3000 ft
1500m à 5 km
500 à 1000 ft
800 à 1500m
200 à 500 ft
< 800m
< 200 ft
Symboles :   Orages  Brouillard  Fortes neiges  Fortes précipitations  Vent > 20 kt
SIGMETs :   Divers  Orages  Givrage  Turbulence  Onde Orograph.  Cendres Volcan.






- Altitude de l'aérodrome : 288 ft
- Code IATA : BZZ


EGVN - RAF Brize Norton

DERNIER METAR :
  • 290050Z 25002KT 3000 RADZ FEW004 SCT009 OVC012 15/15 Q1013 BECMG 9999 NSW RMK YLO1 BECMG GRN

METARs EXPIRÉS :
  • 290020Z 25002KT 2500 -RADZ BKN004 OVC011 15/15 Q1013 BECMG 9999 NSW BKN010 RMK YLO2 BECMG GRN
  • 282350Z 24003KT 2500 RA BKN003 OVC009 15/15 Q1013 BECMG 9999 NSW BKN006 RMK YLO2 BECMG YLO1
  • 282320Z 22002KT 2500 RADZ BKN003 OVC005 15/15 Q1013 TEMPO 4000 -RADZ BKN005 RMK YLO2 TEMPO YLO1
  • 282250Z 25002KT 2500 RADZ OVC003 15/15 Q1014 TEMPO 4000 -RADZ BKN005
  • 282220Z 24002KT 3500 -RADZ SCT003 OVC006 15/15 Q1013 TEMPO 9999 NSW BKN006 RMK YLO2 TEMPO YLO1

TAF TAF EGVN
Valide du 29 à 00h jusqu'au 30 à 00h UTC


282250Z 2900/2924 30005KT 9999 BKN007
TEMPO 2900/2903 5000 -RADZ BKN005
PROB40
TEMPO 2900/2903 3000 -DZ BKN003
BECMG 2902/2904 SCT035
PROB30
TEMPO 2904/2909 SCT012



MET'MAP, la Météo Aéronautique d'un coup d'oeil ! - Copyright ORBIFLY Décembre 2007 - Disclaimer

ORBIFLY MET'MAP TEAM :

Programmation & Développement : Alexandra Zaïnal
Sur une idée originale de : Baudouin d'Aumeries
Assistance à la programmation : Marc-Olivier Méhu
Soutien technique & logistique : Manuel Goepfert

Contact : metmap@orbifly.com




SOURCES & CREDITS :

   NOAA